createdAt,value
2019-05-01T00:02:16.520Z,0
2019-05-01T00:05:22.807Z,0
2019-05-01T00:08:29.013Z,0
2019-05-01T00:11:35.184Z,0
2019-05-01T00:14:41.440Z,0
2019-05-01T00:20:53.972Z,0
2019-05-01T00:24:00.235Z,0
2019-05-01T00:27:06.513Z,0
2019-05-01T00:30:12.641Z,0
2019-05-01T00:36:25.057Z,0
2019-05-01T00:39:31.272Z,0
2019-05-01T00:42:37.395Z,0
2019-05-01T00:45:43.599Z,0
2019-05-01T00:48:49.727Z,0
2019-05-01T00:51:55.934Z,0
2019-05-01T00:55:02.088Z,0
2019-05-01T00:58:08.256Z,0
2019-05-01T01:01:14.442Z,0
2019-05-01T01:04:20.681Z,0
2019-05-01T01:10:33.167Z,0
2019-05-01T01:13:39.391Z,0
2019-05-01T01:16:45.545Z,0
2019-05-01T01:19:51.684Z,0
2019-05-01T01:22:57.984Z,0
2019-05-01T01:26:04.238Z,0
2019-05-01T01:29:10.409Z,0
2019-05-01T01:32:16.569Z,0
2019-05-01T01:35:22.811Z,0
2019-05-01T01:44:41.549Z,0
2019-05-01T01:47:47.705Z,0
2019-05-01T01:50:53.833Z,0
2019-05-01T01:54:00.025Z,0
2019-05-01T01:57:06.415Z,0
2019-05-01T02:00:12.538Z,0
2019-05-01T02:03:18.724Z,0
2019-05-01T02:06:24.991Z,0
2019-05-01T02:09:31.257Z,0
2019-05-01T02:12:37.532Z,0
2019-05-01T02:18:50.082Z,0
2019-05-01T02:21:56.329Z,0
2019-05-01T02:25:05.251Z,0
2019-05-01T02:28:11.422Z,0
2019-05-01T02:31:32.073Z,0
2019-05-01T02:34:38.182Z,0
2019-05-01T02:40:50.727Z,0
2019-05-01T02:43:56.898Z,0
2019-05-01T02:47:03.067Z,0
2019-05-01T02:50:09.220Z,0
2019-05-01T02:53:15.580Z,0
2019-05-01T02:56:21.727Z,0
2019-05-01T02:59:27.926Z,0
2019-05-01T03:02:34.076Z,0
2019-05-01T03:05:40.255Z,0
2019-05-01T03:08:46.417Z,0
2019-05-01T03:14:58.790Z,0.1
2019-05-01T03:18:05.079Z,0.1
2019-05-01T03:24:17.529Z,0.3
2019-05-01T03:27:24.636Z,0.4
2019-05-01T03:30:30.998Z,1.5
2019-05-01T03:33:37.372Z,0.8
2019-05-01T03:36:43.485Z,1.1
2019-05-01T03:39:49.687Z,4
2019-05-01T03:42:58.668Z,1.5
2019-05-01T03:49:11.225Z,1.8
2019-05-01T03:52:17.355Z,2
2019-05-01T03:58:29.846Z,2.7
2019-05-01T04:01:36.265Z,3.4
2019-05-01T04:04:42.568Z,5.3
2019-05-01T04:07:48.860Z,9.3
2019-05-01T04:10:55.114Z,12.6
2019-05-01T04:14:01.381Z,108
2019-05-01T04:17:07.510Z,134.6
2019-05-01T04:23:19.892Z,159.1
2019-05-01T04:26:26.262Z,139
2019-05-01T04:32:55.839Z,172.1
2019-05-01T04:36:02.033Z,95.8
2019-05-01T04:39:08.263Z,162
2019-05-01T04:42:14.483Z,191.5
2019-05-01T04:45:20.738Z,99.4
2019-05-01T04:48:27.009Z,114.5
2019-05-01T04:54:39.495Z,20.5
2019-05-01T04:57:45.611Z,21.1
2019-05-01T05:00:51.848Z,30.4
2019-05-01T05:03:58.148Z,27.9
2019-05-01T05:07:04.270Z,32.9
2019-05-01T05:10:10.461Z,25.7
2019-05-01T05:13:16.747Z,26.1
2019-05-01T05:16:22.927Z,28.3
2019-05-01T05:19:29.110Z,31
2019-05-01T05:22:35.326Z,36.2
2019-05-01T05:25:41.497Z,33.5
2019-05-01T05:28:47.756Z,32.8
2019-05-01T05:31:54.043Z,32
2019-05-01T05:35:00.312Z,42.5
2019-05-01T05:41:12.680Z,127.4
2019-05-01T05:44:18.887Z,43.9
2019-05-01T09:46:39.415Z,25.4
2019-05-01T09:49:53.802Z,25.4
2019-05-01T09:53:03.390Z,25.7
2019-05-01T09:56:11.590Z,27.2
2019-05-01T09:59:22.104Z,26.5
2019-05-01T10:02:28.272Z,27
2019-05-01T10:05:42.763Z,25.7
2019-05-01T10:08:49.814Z,17
2019-05-01T10:11:56.190Z,28.4
2019-05-01T10:15:02.413Z,28.6
2019-05-01T10:18:08.617Z,17.8
2019-05-01T10:21:14.884Z,20.4
2019-05-01T10:24:21.202Z,25.7
2019-05-01T10:27:35.618Z,26.8
2019-05-01T10:30:43.510Z,32.9
2019-05-01T10:33:49.693Z,19
2019-05-01T10:36:58.367Z,23.9
2019-05-01T10:40:04.655Z,25.6
2019-05-01T10:43:10.847Z,21.2
2019-05-01T10:46:17.201Z,34
2019-05-01T10:49:26.134Z,35.1
2019-05-01T10:55:38.528Z,23.4
2019-05-01T10:58:44.742Z,24.5
2019-05-01T11:04:59.827Z,26.1
2019-05-01T11:08:06.093Z,28.1
2019-05-01T11:11:12.241Z,22.5
2019-05-01T11:14:18.432Z,19.5
2019-05-01T11:17:24.584Z,33.1
2019-05-01T11:20:31.063Z,31
2019-05-01T11:23:37.226Z,26.1
2019-05-01T11:29:49.815Z,23.9
2019-05-01T11:32:55.887Z,19
2019-05-01T11:36:12.648Z,15.5
2019-05-01T11:39:18.777Z,16.3
2019-05-01T11:42:24.914Z,16.9
2019-05-01T11:45:31.038Z,18.5
2019-05-01T11:51:43.661Z,22
2019-05-01T11:54:50.015Z,20.1
2019-05-01T11:57:56.308Z,16.8
2019-05-01T12:01:02.443Z,18.5
2019-05-01T12:04:08.629Z,33.5
2019-05-01T12:07:14.886Z,20.4
2019-05-01T12:13:27.437Z,21.1
2019-05-01T12:16:33.593Z,24.3
2019-05-01T12:19:39.760Z,25.4
2019-05-01T12:25:58.319Z,23
2019-05-01T12:29:04.607Z,22
2019-05-01T12:32:10.737Z,20.2
2019-05-01T12:35:16.940Z,21.1
2019-05-01T12:38:23.098Z,21
2019-05-01T12:41:29.232Z,37.4
2019-05-01T12:47:41.797Z,22.8
2019-05-01T12:50:47.921Z,23.9
2019-05-01T12:53:54.187Z,22.6
2019-05-01T13:00:12.144Z,20.5
2019-05-01T13:03:18.148Z,22
2019-05-01T13:06:24.416Z,20.4
2019-05-01T13:09:33.249Z,21.3
2019-05-01T13:12:39.409Z,18.9
2019-05-01T13:15:48.596Z,18.5
2019-05-01T13:22:01.080Z,19.8
2019-05-01T13:25:07.246Z,21.7
2019-05-01T13:28:13.371Z,22
2019-05-01T13:31:19.575Z,36.7
2019-05-01T13:34:25.736Z,18.8
2019-05-01T13:37:31.910Z,25.6
2019-05-01T13:40:38.170Z,17.4
2019-05-01T13:43:44.294Z,17.1
2019-05-01T13:46:50.497Z,20
2019-05-01T13:49:56.872Z,17.7
2019-05-01T13:56:09.191Z,14.8
2019-05-01T13:59:15.319Z,13.9
2019-05-01T14:02:21.625Z,13.7
2019-05-01T14:08:34.032Z,14.4
2019-05-01T14:11:40.180Z,14.3
2019-05-01T14:14:46.385Z,15.1
2019-05-01T14:17:52.549Z,15.1
2019-05-01T14:20:58.679Z,15.4
2019-05-01T14:24:04.887Z,15.4
2019-05-01T14:30:17.521Z,21.8
2019-05-01T14:33:23.684Z,22.6
2019-05-01T14:36:30.268Z,22.8
2019-05-01T14:42:42.788Z,19.2
2019-05-01T14:45:49.057Z,15
2019-05-01T14:48:55.334Z,15.4
2019-05-01T14:52:01.552Z,23.4
2019-05-01T14:55:07.756Z,22.4
2019-05-01T14:58:13.882Z,22
2019-05-01T15:04:26.473Z,17.5
2019-05-01T15:07:46.707Z,17.3
2019-05-01T15:10:52.822Z,17.3
2019-05-01T15:13:59.089Z,16.7
2019-05-01T15:17:07.911Z,16.4
2019-05-01T15:20:13.983Z,15.8
2019-05-01T15:26:26.434Z,16.6
2019-05-01T15:29:32.812Z,13.7
2019-05-01T15:32:39.039Z,12.6
2019-05-01T15:38:51.423Z,14.1
2019-05-01T15:41:57.693Z,12.9
2019-05-01T15:45:03.903Z,13.2
2019-05-01T15:48:10.066Z,10.5
2019-05-01T15:51:16.192Z,10.4
2019-05-01T15:54:22.435Z,10.3
2019-05-01T16:00:34.942Z,8.9
2019-05-01T16:03:41.205Z,11.4
2019-05-01T16:06:47.369Z,11.1
2019-05-01T16:12:59.721Z,10
2019-05-01T16:16:05.962Z,9.5
2019-05-01T16:19:12.327Z,9.1
2019-05-01T16:22:18.493Z,8.5
2019-05-01T16:25:24.658Z,7.8
2019-05-01T16:28:30.782Z,7.3
2019-05-01T16:34:45.925Z,5.3
2019-05-01T16:37:52.101Z,4.7
2019-05-01T16:40:58.349Z,4.3
2019-05-01T16:47:10.691Z,3.9
2019-05-01T16:50:16.967Z,3.5
2019-05-01T16:53:23.090Z,3.1
2019-05-01T16:56:32.897Z,2.7
2019-05-01T16:59:39.216Z,2.3
2019-05-01T17:02:45.406Z,1.9
2019-05-01T17:08:57.852Z,1.2
2019-05-01T17:12:04.001Z,0.9
2019-05-01T17:15:10.156Z,0.7
2019-05-01T17:18:16.423Z,0.6
2019-05-01T17:21:22.685Z,0.4
2019-05-01T17:24:28.812Z,0.3
2019-05-01T17:27:35.132Z,0.2
2019-05-01T17:30:41.387Z,0.1
2019-05-01T17:33:55.449Z,0.1
2019-05-01T17:37:02.538Z,0
2019-05-01T17:40:08.796Z,0
2019-05-01T17:43:17.881Z,0
2019-05-01T17:46:24.100Z,0
2019-05-01T17:49:30.383Z,0
2019-05-01T17:55:42.902Z,0
2019-05-01T17:58:49.029Z,0
2019-05-01T18:05:01.550Z,0
2019-05-01T18:08:07.621Z,0
2019-05-01T18:11:18.276Z,0
2019-05-01T18:14:24.623Z,0
2019-05-01T18:17:30.728Z,0
2019-05-01T18:20:36.981Z,0
2019-05-01T18:23:54.329Z,0
2019-05-01T18:27:00.639Z,0
2019-05-01T18:30:06.751Z,0
2019-05-01T18:33:13.058Z,0
2019-05-01T18:36:27.572Z,0
2019-05-01T18:39:33.791Z,0
2019-05-01T18:42:39.921Z,0
2019-05-01T18:51:58.645Z,0
2019-05-01T18:55:04.763Z,0
2019-05-01T18:58:10.979Z,0
2019-05-01T19:01:17.103Z,0
2019-05-01T19:04:27.143Z,0
2019-05-01T19:07:33.269Z,0
2019-05-01T19:10:39.426Z,0
2019-05-01T19:13:45.599Z,0
2019-05-01T19:16:51.961Z,0
2019-05-01T19:26:10.657Z,0
2019-05-01T19:29:17.058Z,0
2019-05-01T19:32:23.288Z,0
2019-05-01T19:35:36.823Z,0
2019-05-01T19:38:42.891Z,0
2019-05-01T19:41:56.416Z,0
2019-05-01T19:48:09.025Z,0
2019-05-01T19:51:19.055Z,0
2019-05-01T19:54:32.384Z,0
2019-05-01T19:57:38.518Z,0
2019-05-01T20:00:44.791Z,0
2019-05-01T20:06:57.607Z,0
2019-05-01T20:10:03.801Z,0
2019-05-01T20:13:15.785Z,0
2019-05-01T20:16:21.958Z,0
2019-05-01T20:19:28.109Z,0
2019-05-01T20:22:34.246Z,0
2019-05-01T20:25:40.459Z,0
2019-05-01T20:28:49.052Z,0
2019-05-01T20:31:55.291Z,0
2019-05-01T20:35:02.515Z,0
2019-05-01T20:38:08.702Z,0
2019-05-01T20:44:28.823Z,0
2019-05-01T20:47:50.037Z,0
2019-05-01T20:50:58.029Z,0
2019-05-01T20:54:04.155Z,0
2019-05-01T20:57:22.251Z,0
2019-05-01T21:00:28.413Z,0
2019-05-01T21:03:34.603Z,0
2019-05-01T21:06:47.498Z,0
2019-05-01T21:10:01.567Z,0
2019-05-01T21:16:13.842Z,0
2019-05-01T21:19:20.040Z,0
2019-05-01T21:22:26.513Z,0
2019-05-01T21:25:32.639Z,0
2019-05-01T21:28:38.837Z,0
2019-05-01T21:34:54.934Z,0
2019-05-01T21:38:01.120Z,0
2019-05-01T21:41:07.305Z,0
2019-05-01T21:44:15.604Z,0
2019-05-01T21:50:29.672Z,0
2019-05-01T21:53:48.325Z,0
2019-05-01T21:56:54.496Z,0
2019-05-01T22:00:00.657Z,0
2019-05-01T22:03:06.825Z,0
2019-05-01T22:06:19.144Z,0
2019-05-01T22:09:25.295Z,0
2019-05-01T22:12:31.563Z,0
2019-05-01T22:18:44.008Z,0
2019-05-01T22:21:50.131Z,0
2019-05-01T22:24:56.379Z,0
2019-05-01T22:28:02.591Z,0
2019-05-01T22:31:08.725Z,0
2019-05-01T22:34:14.921Z,0
2019-05-01T22:37:21.090Z,0
2019-05-01T22:40:27.449Z,0
2019-05-01T22:46:43.237Z,0
2019-05-01T22:52:55.697Z,0
2019-05-01T22:56:06.631Z,0
2019-05-01T22:59:12.713Z,0
2019-05-01T23:02:19.029Z,0
2019-05-01T23:08:37.533Z,0
2019-05-01T23:14:50.019Z,0
2019-05-01T23:17:56.182Z,0
2019-05-01T23:21:02.442Z,0
2019-05-01T23:24:08.741Z,0
2019-05-01T23:27:14.985Z,0
2019-05-01T23:30:21.267Z,0
2019-05-01T23:33:27.423Z,0
2019-05-01T23:36:36.455Z,0
2019-05-01T23:42:56.728Z,0
2019-05-01T23:46:03.018Z,0
2019-05-01T23:49:09.195Z,0
2019-05-01T23:52:15.469Z,0
2019-05-01T23:55:21.587Z,0
2019-05-01T23:58:27.899Z,0
